Time;durP1;ratioP1;P1;durP2;ratioP2;P2;SDS_P1;SDS_P2;PMS_P1;PMS_P2;Temp;Humidity;BMP_temperature;BMP_pressure;BME280_temperature;BME280_humidity;BME280_pressure;Samples;Min_cycle;Max_cycle;Signal;HPM_P1;HPM_P2
2021/09/26 00:01:11;;;;;;;9.98;8.93;;;19.30;82.70;;;;;;6246617;28;20490;-76
2021/09/26 00:04:12;;;;;;;9.95;9.05;;;19.20;82.40;;;;;;6290620;23;20524;-77
2021/09/26 00:07:14;;;;;;;10.20;9.27;;;19.30;82.70;;;;;;6271674;28;20926;-77
2021/09/26 00:10:16;;;;;;;10.70;8.80;;;19.30;82.30;;;;;;6271265;28;20551;-77
2021/09/26 00:13:25;;;;;;;10.10;8.73;;;19.30;82.00;;;;;;6271614;28;20437;-77
2021/09/26 00:16:27;;;;;;;11.07;10.10;;;19.30;81.90;;;;;;6246876;28;20516;-77
2021/09/26 00:19:29;;;;;;;9.50;8.60;;;19.30;81.70;;;;;;6246382;28;20991;-77
2021/09/26 00:22:31;;;;;;;9.73;8.82;;;19.30;81.90;;;;;;6246421;28;20415;-77
2021/09/26 00:25:33;;;;;;;9.02;7.70;;;19.30;81.60;;;;;;6246569;28;20506;-77
2021/09/26 00:28:36;;;;;;;10.27;9.30;;;19.20;81.50;;;;;;6246768;28;20435;-77
2021/09/26 00:31:38;;;;;;;9.53;8.63;;;19.10;81.90;;;;;;6246584;28;20504;-77
2021/09/26 00:34:40;;;;;;;9.60;8.80;;;18.90;81.80;;;;;;6245677;28;20504;-77
2021/09/26 00:37:42;;;;;;;9.07;8.18;;;18.80;82.20;;;;;;6246417;28;20415;-77
2021/09/26 00:40:44;;;;;;;10.90;9.37;;;18.80;82.20;;;;;;6245638;28;20529;-77
2021/09/26 00:43:47;;;;;;;9.82;8.80;;;18.80;82.20;;;;;;6246724;28;20520;-77
2021/09/26 00:46:49;;;;;;;11.07;9.97;;;18.70;82.20;;;;;;6246239;28;20454;-77
2021/09/26 00:49:51;;;;;;;10.55;9.55;;;18.70;82.40;;;;;;6245965;28;20425;-77
2021/09/26 00:52:53;;;;;;;10.10;9.13;;;18.70;82.60;;;;;;6245849;28;20573;-77
2021/09/26 00:55:56;;;;;;;10.48;9.13;;;18.60;82.20;;;;;;6246298;28;20442;-77
2021/09/26 00:59:00;;;;;;;9.88;8.88;;;18.60;82.20;;;;;;6245462;28;20415;-77
2021/09/26 01:02:01;;;;;;;9.65;8.73;;;18.50;82.20;;;;;;6245203;28;20936;-77
2021/09/26 01:05:04;;;;;;;11.25;9.02;;;18.40;82.50;;;;;;6245679;28;21014;-77
2021/09/26 01:08:13;;;;;;;10.03;8.10;;;18.30;82.40;;;;;;6245785;28;20966;-77
2021/09/26 01:11:24;;;;;;;9.75;8.82;;;18.30;82.70;;;;;;6245413;28;20490;-78
2021/09/26 01:14:35;;;;;;;8.70;7.80;;;18.20;82.50;;;;;;6245327;28;20509;-77
2021/09/26 01:17:41;;;;;;;10.93;9.23;;;18.10;82.50;;;;;;6245550;28;20959;-77
2021/09/26 01:20:49;;;;;;;10.00;9.00;;;18.10;82.40;;;;;;6244811;28;20955;-77
2021/09/26 01:24:12;;;;;;;10.97;9.17;;;17.90;82.50;;;;;;6245571;28;20808;-77
2021/09/26 01:27:36;;;;;;;8.77;7.88;;;17.90;82.90;;;;;;6245386;28;20557;-77
2021/09/26 01:30:45;;;;;;;9.02;8.15;;;17.80;82.80;;;;;;6244869;28;20471;-77
2021/09/26 01:33:53;;;;;;;10.40;9.40;;;17.80;82.60;;;;;;6245144;28;20904;-77
2021/09/26 01:36:59;;;;;;;13.03;9.13;;;17.70;82.40;;;;;;6245478;28;20522;-77
2021/09/26 01:40:07;;;;;;;10.00;8.90;;;17.70;82.70;;;;;;6245181;28;20525;-77
2021/09/26 01:43:15;;;;;;;9.23;8.35;;;17.70;82.40;;;;;;6244773;28;20998;-77
2021/09/26 01:46:25;;;;;;;8.63;7.75;;;17.70;82.50;;;;;;6244179;28;20500;-77
2021/09/26 01:49:32;;;;;;;9.18;8.10;;;17.70;82.70;;;;;;6244659;28;21071;-77
2021/09/26 01:52:37;;;;;;;10.07;9.00;;;17.60;82.30;;;;;;6245258;28;20592;-77
2021/09/26 01:55:40;;;;;;;9.77;8.88;;;17.60;82.50;;;;;;6244871;28;20462;-77
2021/09/26 01:58:43;;;;;;;10.00;8.63;;;17.50;82.60;;;;;;6244415;28;20518;-77
2021/09/26 02:01:47;;;;;;;9.82;8.57;;;17.50;82.50;;;;;;6244579;28;20535;-77
2021/09/26 02:04:52;;;;;;;10.23;9.18;;;17.40;82.10;;;;;;6245027;28;20685;-77
2021/09/26 02:07:56;;;;;;;9.30;8.30;;;17.40;82.20;;;;;;6245113;28;20625;-77
2021/09/26 02:10:58;;;;;;;8.70;7.80;;;17.30;82.70;;;;;;6244259;28;21053;-77
2021/09/26 02:14:01;;;;;;;9.80;8.88;;;17.30;82.50;;;;;;6244451;28;20505;-77
2021/09/26 02:17:05;;;;;;;10.18;9.18;;;17.30;82.00;;;;;;6244843;28;20541;-77
2021/09/26 02:20:08;;;;;;;10.20;9.20;;;17.20;82.50;;;;;;6244858;28;20483;-77
2021/09/26 02:23:11;;;;;;;11.25;9.13;;;17.20;83.10;;;;;;6244396;28;20497;-77
2021/09/26 02:26:13;;;;;;;9.05;8.25;;;17.20;82.50;;;;;;6244732;28;20470;-77
2021/09/26 02:29:15;;;;;;;8.68;7.88;;;17.20;83.10;;;;;;6244098;28;20425;-77
2021/09/26 02:32:18;;;;;;;9.93;8.85;;;17.10;82.20;;;;;;6244632;28;20977;-77
2021/09/26 02:35:20;;;;;;;10.23;8.02;;;17.10;82.30;;;;;;6244461;28;20460;-77
2021/09/26 02:38:22;;;;;;;9.30;7.78;;;17.10;82.60;;;;;;6244554;28;20523;-77
2021/09/26 02:41:32;;;;;;;9.55;8.57;;;17.00;82.20;;;;;;6243987;28;20411;-77
2021/09/26 02:44:40;;;;;;;10.52;8.93;;;16.90;81.90;;;;;;6244735;28;20537;-77
2021/09/26 02:47:49;;;;;;;9.63;8.70;;;16.90;82.50;;;;;;6244306;28;20522;-77
2021/09/26 02:50:52;;;;;;;13.07;9.02;;;16.80;82.30;;;;;;6244012;28;20419;-77
2021/09/26 02:53:55;;;;;;;9.88;8.88;;;16.80;81.90;;;;;;6244379;28;20492;-77
2021/09/26 02:56:57;;;;;;;9.70;8.80;;;16.80;82.40;;;;;;6246214;28;20605;-77
2021/09/26 02:59:59;;;;;;;8.70;7.90;;;16.70;82.40;;;;;;6248666;28;20912;-77
2021/09/26 03:03:07;;;;;;;8.65;7.78;;;16.70;82.50;;;;;;6248026;28;20434;-77
2021/09/26 03:06:09;;;;;;;10.45;9.02;;;16.70;82.30;;;;;;6248488;28;20589;-77
2021/09/26 03:09:11;;;;;;;9.37;8.37;;;16.60;82.00;;;;;;6247995;28;20968;-77
2021/09/26 03:12:14;;;;;;;8.95;8.05;;;16.50;82.40;;;;;;6248738;28;20505;-77
2021/09/26 03:15:16;;;;;;;7.40;6.70;;;16.50;82.60;;;;;;6248228;28;20504;-77
2021/09/26 03:18:19;;;;;;;11.27;8.63;;;16.40;82.70;;;;;;6248108;28;20496;-77
2021/09/26 03:21:21;;;;;;;10.85;7.47;;;16.40;82.40;;;;;;6247769;28;20448;-77
2021/09/26 03:24:23;;;;;;;9.10;8.23;;;16.30;82.40;;;;;;6248545;28;20513;-77
2021/09/26 03:27:25;;;;;;;9.25;7.28;;;16.30;82.60;;;;;;6247933;28;20439;-77
2021/09/26 03:30:27;;;;;;;12.20;8.77;;;16.30;82.20;;;;;;6248086;28;20554;-77
2021/09/26 03:33:30;;;;;;;9.43;8.18;;;16.30;82.20;;;;;;6248244;28;20426;-77
2021/09/26 03:36:32;;;;;;;8.82;8.02;;;16.30;82.20;;;;;;6248320;28;20517;-77
2021/09/26 03:39:34;;;;;;;8.45;7.05;;;16.10;82.30;;;;;;6247390;28;20458;-77
2021/09/26 03:42:36;;;;;;;8.18;7.47;;;16.10;82.30;;;;;;6247490;28;20924;-77
2021/09/26 03:45:38;;;;;;;8.52;7.15;;;16.10;82.40;;;;;;6247747;28;20415;-77
2021/09/26 03:48:41;;;;;;;10.55;7.72;;;16.10;82.20;;;;;;6247189;28;20525;-77
2021/09/26 03:51:43;;;;;;;8.63;7.18;;;16.10;82.10;;;;;;6248211;28;20427;-77
2021/09/26 03:54:46;;;;;;;9.85;7.28;;;16.10;82.20;;;;;;6247338;28;20422;-77
2021/09/26 03:57:48;;;;;;;8.05;7.03;;;16.10;82.10;;;;;;6247527;28;20791;-77
2021/09/26 04:00:50;;;;;;;8.30;7.50;;;16.10;82.10;;;;;;6246705;28;20561;-77
2021/09/26 04:03:53;;;;;;;12.45;7.53;;;16.10;82.10;;;;;;6247622;28;20463;-77
2021/09/26 04:06:55;;;;;;;8.57;7.00;;;16.10;82.10;;;;;;6246880;28;20502;-76
2021/09/26 04:09:57;;;;;;;8.23;7.20;;;16.10;82.00;;;;;;6245842;28;20415;-77
2021/09/26 04:12:58;;;;;;;7.70;6.90;;;16.10;81.50;;;;;;6247349;28;20550;-76
2021/09/26 04:16:00;;;;;;;8.73;7.78;;;16.00;81.50;;;;;;6247538;28;20441;-77
2021/09/26 04:19:03;;;;;;;7.13;6.43;;;16.00;81.60;;;;;;6247487;28;20415;-76
2021/09/26 04:22:05;;;;;;;6.95;6.25;;;16.00;81.60;;;;;;6246657;28;20501;-77
2021/09/26 04:25:08;;;;;;;9.68;7.40;;;16.00;81.80;;;;;;6246782;28;20418;-76
2021/09/26 04:28:10;;;;;;;9.95;7.55;;;15.90;81.70;;;;;;6246917;28;20466;-77
2021/09/26 04:31:12;;;;;;;8.60;7.72;;;15.80;81.80;;;;;;6246284;28;20565;-76
2021/09/26 04:34:15;;;;;;;8.25;7.38;;;15.80;81.90;;;;;;6246416;28;20488;-76
2021/09/26 04:37:17;;;;;;;8.35;7.05;;;15.80;81.90;;;;;;6246325;28;20898;-76
2021/09/26 04:40:19;;;;;;;7.47;6.77;;;15.70;81.60;;;;;;6246556;28;20443;-76
2021/09/26 04:43:21;;;;;;;8.30;6.85;;;15.60;82.00;;;;;;6246017;28;20422;-76
2021/09/26 04:46:23;;;;;;;7.63;6.83;;;15.60;82.00;;;;;;6245997;28;21033;-76
2021/09/26 04:49:28;;;;;;;7.80;6.25;;;15.60;82.00;;;;;;6246081;28;20493;-76
2021/09/26 04:52:30;;;;;;;8.70;7.27;;;15.60;82.50;;;;;;6246450;28;20524;-76
2021/09/26 04:55:32;;;;;;;8.55;7.07;;;15.60;82.00;;;;;;6245726;28;20809;-77
2021/09/26 04:58:34;;;;;;;7.22;6.45;;;15.60;82.10;;;;;;6246023;28;20892;-76
2021/09/26 05:01:36;;;;;;;7.95;7.15;;;15.60;81.90;;;;;;6245679;28;20415;-76
2021/09/26 05:04:39;;;;;;;7.75;6.75;;;15.70;81.60;;;;;;6245793;28;20469;-76
2021/09/26 05:07:41;;;;;;;9.13;7.20;;;15.60;81.30;;;;;;6245835;28;20501;-76
2021/09/26 05:10:43;;;;;;;7.53;6.82;;;15.60;81.70;;;;;;6245323;28;20504;-76
2021/09/26 05:13:45;;;;;;;6.45;5.85;;;15.60;81.70;;;;;;6245445;28;20501;-76
2021/09/26 05:16:46;;;;;;;9.93;6.60;;;15.60;81.70;;;;;;6245417;28;20803;-76
2021/09/26 05:19:50;;;;;;;8.70;6.10;;;15.50;81.60;;;;;;6245211;28;20508;-76
2021/09/26 05:22:52;;;;;;;7.30;6.70;;;15.60;81.40;;;;;;6245252;28;20439;-76
2021/09/26 05:25:54;;;;;;;6.63;6.03;;;15.60;81.30;;;;;;6245184;28;20553;-76
2021/09/26 05:28:56;;;;;;;7.43;6.22;;;15.50;81.30;;;;;;6244867;28;20518;-76
2021/09/26 05:31:59;;;;;;;7.60;6.53;;;15.50;81.30;;;;;;6245679;28;20453;-76
2021/09/26 05:35:03;;;;;;;7.07;6.38;;;15.60;81.20;;;;;;6245132;28;20418;-76
2021/09/26 05:38:05;;;;;;;6.38;5.80;;;15.60;81.30;;;;;;6245315;28;20415;-76
2021/09/26 05:41:06;;;;;;;8.67;6.97;;;15.60;80.90;;;;;;6244584;28;21026;-76
2021/09/26 05:44:08;;;;;;;8.85;5.80;;;15.70;80.80;;;;;;6245447;28;20529;-76
2021/09/26 05:47:14;;;;;;;7.72;6.43;;;15.70;80.80;;;;;;6244744;28;20466;-76
2021/09/26 05:50:17;;;;;;;7.33;5.23;;;15.70;80.80;;;;;;6244675;28;20923;-76
2021/09/26 05:53:20;;;;;;;6.35;5.75;;;15.70;80.70;;;;;;6244691;28;20986;-76
2021/09/26 05:56:22;;;;;;;6.03;5.43;;;15.80;81.10;;;;;;6245510;28;20437;-76
2021/09/26 05:59:24;;;;;;;7.30;6.45;;;15.90;81.10;;;;;;6244273;28;20908;-76
2021/09/26 06:02:28;;;;;;;10.00;6.22;;;16.10;80.90;;;;;;6268926;23;20449;-77
2021/09/26 06:05:31;;;;;;;6.18;5.57;;;16.20;80.40;;;;;;6293033;28;20878;-78
2021/09/26 06:08:33;;;;;;;6.53;5.93;;;16.30;80.00;;;;;;6294544;28;20458;-78
2021/09/26 06:11:35;;;;;;;9.23;6.35;;;16.40;80.50;;;;;;6293989;28;20502;-76
2021/09/26 06:14:36;;;;;;;7.43;5.90;;;16.40;81.10;;;;;;6275033;28;20560;-76
2021/09/26 06:17:38;;;;;;;5.72;5.07;;;16.60;80.80;;;;;;6269252;28;20498;-76
2021/09/26 06:20:42;;;;;;;5.43;4.93;;;16.70;80.60;;;;;;6269170;28;20479;-78
2021/09/26 06:23:43;;;;;;;9.68;5.45;;;16.80;80.30;;;;;;6269655;28;20561;-76
2021/09/26 06:26:45;;;;;;;6.22;5.63;;;16.90;80.10;;;;;;6268853;28;20432;-76
2021/09/26 06:29:47;;;;;;;8.55;5.63;;;17.10;79.80;;;;;;6268871;28;20543;-76
2021/09/26 06:32:49;;;;;;;9.35;5.78;;;17.20;79.40;;;;;;6272492;28;20520;-75
2021/09/26 06:35:52;;;;;;;6.30;5.35;;;17.20;79.30;;;;;;6274361;28;20443;-75
2021/09/26 06:38:55;;;;;;;5.75;5.18;;;17.40;79.30;;;;;;6273265;28;20469;-76
2021/09/26 06:41:56;;;;;;;5.30;4.80;;;17.50;79.20;;;;;;6273685;28;20462;-76
2021/09/26 06:44:58;;;;;;;6.30;5.28;;;17.60;79.30;;;;;;6273573;28;20534;-76
2021/09/26 06:48:00;;;;;;;7.95;4.40;;;17.80;79.50;;;;;;6273912;28;20566;-76
2021/09/26 06:51:03;;;;;;;7.63;5.43;;;18.00;79.10;;;;;;6273063;28;20429;-77
2021/09/26 06:54:05;;;;;;;5.72;4.38;;;18.30;78.60;;;;;;6273183;28;20496;-76
2021/09/26 06:57:07;;;;;;;7.18;4.82;;;18.60;77.60;;;;;;6272996;28;20905;-76
2021/09/26 07:00:10;;;;;;;7.00;5.38;;;18.90;77.10;;;;;;6274437;28;20504;-76
2021/09/26 07:03:14;;;;;;;5.75;5.15;;;19.20;77.20;;;;;;6269024;28;20421;-76
2021/09/26 07:06:17;;;;;;;7.60;4.95;;;19.40;76.60;;;;;;6274452;28;20460;-77
2021/09/26 07:09:19;;;;;;;8.60;4.70;;;19.50;77.10;;;;;;6273004;28;20550;-77
2021/09/26 07:12:21;;;;;;;6.07;4.95;;;19.60;76.50;;;;;;6272927;28;20971;-77
2021/09/26 07:15:23;;;;;;;6.05;4.50;;;19.70;76.50;;;;;;6271800;28;20574;-77
2021/09/26 07:18:25;;;;;;;5.72;4.93;;;19.70;77.00;;;;;;6275439;28;20605;-77
2021/09/26 07:21:29;;;;;;;11.07;7.88;;;19.60;77.50;;;;;;6272383;28;20420;-77
2021/09/26 07:24:30;;;;;;;7.85;5.30;;;19.70;78.80;;;;;;6273270;28;20475;-77
2021/09/26 07:27:32;;;;;;;7.13;5.10;;;19.90;77.00;;;;;;6272373;28;20794;-77
2021/09/26 07:30:35;;;;;;;5.07;4.40;;;20.10;75.10;;;;;;6271961;28;20462;-77
2021/09/26 07:33:37;;;;;;;8.35;5.57;;;20.20;74.10;;;;;;6272048;28;20526;-77
2021/09/26 07:36:40;;;;;;;9.18;5.82;;;20.20;75.20;;;;;;6272489;28;20979;-77
2021/09/26 07:39:42;;;;;;;12.13;6.40;;;20.10;77.00;;;;;;6272453;28;20429;-78
2021/09/26 07:42:44;;;;;;;10.63;6.60;;;20.10;76.80;;;;;;6272369;28;20504;-77
2021/09/26 07:45:46;;;;;;;7.65;5.55;;;20.10;76.80;;;;;;6272094;28;20443;-77
2021/09/26 07:48:48;;;;;;;7.95;6.43;;;20.10;76.80;;;;;;6271851;28;20459;-77
2021/09/26 07:51:52;;;;;;;9.60;6.72;;;20.10;76.90;;;;;;6272869;28;20551;-77
2021/09/26 07:54:55;;;;;;;11.35;6.70;;;20.00;77.40;;;;;;6271747;28;20470;-77
2021/09/26 07:57:57;;;;;;;9.35;6.93;;;20.10;77.70;;;;;;6271972;28;20424;-77
2021/09/26 08:01:00;;;;;;;9.52;7.68;;;20.10;77.80;;;;;;6271082;28;20902;-77
2021/09/26 08:04:03;;;;;;;9.43;6.78;;;20.20;77.50;;;;;;6271969;28;20440;-78
2021/09/26 08:07:06;;;;;;;8.32;7.03;;;20.40;77.00;;;;;;6271482;28;20914;-77
2021/09/26 08:10:10;;;;;;;8.57;6.68;;;20.50;76.50;;;;;;6271348;28;20416;-77
2021/09/26 08:13:12;;;;;;;8.97;6.90;;;20.60;76.10;;;;;;6271541;28;20494;-77
2021/09/26 08:16:13;;;;;;;10.35;7.88;;;20.70;76.80;;;;;;6272659;28;20514;-78
2021/09/26 08:19:15;;;;;;;13.82;8.60;;;20.80;76.20;;;;;;6271349;28;20955;-78
2021/09/26 08:22:18;;;;;;;9.95;7.10;;;20.90;76.10;;;;;;6271360;28;20444;-78
2021/09/26 08:25:22;;;;;;;14.50;7.75;;;20.90;76.20;;;;;;6271144;28;20416;-78
2021/09/26 08:28:24;;;;;;;11.05;8.15;;;20.90;76.90;;;;;;6271955;28;20433;-78
2021/09/26 08:31:26;;;;;;;14.55;9.65;;;20.90;76.00;;;;;;6270539;28;20446;-78
2021/09/26 08:34:29;;;;;;;16.92;8.57;;;21.00;76.20;;;;;;6271328;28;20436;-77
2021/09/26 08:37:32;;;;;;;12.65;7.43;;;21.00;75.90;;;;;;6270827;28;20918;-78
2021/09/26 08:40:34;;;;;;;9.38;8.38;;;21.00;76.60;;;;;;6271278;28;20454;-79
2021/09/26 08:43:37;;;;;;;10.85;7.30;;;21.00;75.90;;;;;;6270921;28;20421;-77
2021/09/26 08:46:40;;;;;;;11.85;6.75;;;21.00;76.10;;;;;;6270869;28;20409;-78
2021/09/26 08:49:42;;;;;;;8.30;7.13;;;21.00;75.80;;;;;;6270598;28;20882;-77
2021/09/26 08:52:46;;;;;;;7.25;6.55;;;21.10;75.60;;;;;;6270406;28;20437;-77
2021/09/26 08:55:48;;;;;;;8.43;7.53;;;21.10;75.10;;;;;;6270304;28;20520;-78
2021/09/26 08:58:52;;;;;;;9.83;7.93;;;21.10;74.80;;;;;;6270329;28;20500;-77
2021/09/26 09:01:54;;;;;;;454.08;270.48;;;21.00;75.10;;;;;;6270498;28;20418;-78
2021/09/26 09:04:56;;;;;;;83.28;64.05;;;21.00;75.30;;;;;;6270012;28;20425;-78
2021/09/26 09:08:09;;;;;;;13.15;9.35;;;21.00;75.30;;;;;;6270932;28;20903;-77
2021/09/26 09:11:12;;;;;;;13.23;9.55;;;20.90;75.60;;;;;;6270257;28;20500;-77
2021/09/26 09:14:14;;;;;;;13.68;10.27;;;20.80;76.30;;;;;;6270445;28;20413;-78
2021/09/26 09:17:29;;;;;;;11.25;9.18;;;20.70;76.70;;;;;;6273760;28;20503;-78
2021/09/26 09:20:32;;;;;;;10.50;8.97;;;20.70;77.30;;;;;;6278179;28;20975;-78
2021/09/26 09:23:36;;;;;;;16.33;9.07;;;20.70;77.00;;;;;;6280807;28;20405;-77
2021/09/26 09:26:38;;;;;;;9.70;7.72;;;20.80;77.10;;;;;;6280633;28;20421;-77
2021/09/26 09:29:40;;;;;;;14.32;8.05;;;21.00;76.90;;;;;;6280200;28;20520;-77
2021/09/26 09:32:55;;;;;;;10.33;8.03;;;21.10;76.90;;;;;;6278553;28;20504;-77
2021/09/26 09:35:57;;;;;;;11.52;8.27;;;21.30;76.20;;;;;;6281282;28;20808;-78
2021/09/26 09:39:02;;;;;;;13.03;8.10;;;21.30;77.10;;;;;;6281012;28;20830;-77
2021/09/26 09:42:17;;;;;;;10.48;8.50;;;21.30;76.00;;;;;;6280761;28;20415;-77
2021/09/26 09:45:21;;;;;;;14.00;10.53;;;21.30;76.70;;;;;;6281499;28;20404;-77
2021/09/26 09:48:24;;;;;;;10.10;7.93;;;21.30;77.30;;;;;;6283292;28;20821;-77
2021/09/26 09:51:26;;;;;;;12.20;8.95;;;21.40;77.80;;;;;;6279615;28;20761;-77
2021/09/26 09:54:32;;;;;;;13.73;10.88;;;21.50;76.90;;;;;;6282538;28;20504;-77
2021/09/26 09:57:34;;;;;;;14.18;10.88;;;21.50;76.00;;;;;;6286783;28;20435;-79
2021/09/26 10:00:48;;;;;;;14.52;10.40;;;21.60;76.30;;;;;;6274088;28;20437;-77
2021/09/26 10:03:52;;;;;;;14.75;10.55;;;21.70;76.60;;;;;;6269247;28;20435;-77
2021/09/26 10:06:54;;;;;;;11.50;10.23;;;21.80;75.00;;;;;;6271730;28;20539;-77
2021/09/26 10:09:58;;;;;;;17.83;16.23;;;21.90;75.60;;;;;;6274104;28;20483;-77
2021/09/26 10:13:11;;;;;;;13.15;11.60;;;22.00;74.60;;;;;;6274662;28;20443;-77
2021/09/26 10:16:13;;;;;;;12.18;10.82;;;22.10;74.30;;;;;;6275512;28;20515;-78
2021/09/26 10:19:15;;;;;;;12.32;10.50;;;22.30;73.50;;;;;;6274724;28;20440;-77
2021/09/26 10:22:18;;;;;;;22.50;20.30;;;22.50;73.40;;;;;;6274214;28;20441;-77
2021/09/26 10:25:21;;;;;;;15.93;14.10;;;22.70;71.90;;;;;;6273935;28;20720;-77
2021/09/26 10:28:27;;;;;;;10.93;9.90;;;23.00;70.80;;;;;;6274730;28;21326;-78
2021/09/26 10:31:30;;;;;;;10.40;9.27;;;23.40;70.50;;;;;;6273628;28;20414;-78
2021/09/26 10:34:32;;;;;;;9.95;8.25;;;23.90;68.30;;;;;;6273963;28;20435;-77
2021/09/26 10:37:34;;;;;;;13.63;8.82;;;24.40;67.30;;;;;;6275746;28;20576;-79
2021/09/26 10:40:38;;;;;;;10.80;8.93;;;25.10;64.80;;;;;;6279775;28;20444;-79
2021/09/26 10:43:41;;;;;;;9.93;8.00;;;25.70;62.80;;;;;;6277152;28;20471;-79
2021/09/26 10:46:43;;;;;;;14.60;11.73;;;25.90;61.80;;;;;;6277229;28;20417;-79
2021/09/26 10:49:48;;;;;;;8.70;7.75;;;26.20;60.90;;;;;;6276316;28;20893;-79
2021/09/26 10:52:52;;;;;;;9.95;7.63;;;26.50;60.80;;;;;;6276126;28;20520;-80
2021/09/26 10:55:56;;;;;;;10.15;7.82;;;26.90;59.50;;;;;;6274660;28;20920;-78
2021/09/26 10:58:57;;;;;;;8.60;7.40;;;27.30;58.00;;;;;;6274037;28;20535;-80
2021/09/26 11:01:59;;;;;;;10.63;7.53;;;27.40;57.70;;;;;;6269448;28;20480;-79
2021/09/26 11:05:03;;;;;;;9.90;8.33;;;27.40;57.30;;;;;;6273252;28;20397;-78
2021/09/26 11:08:09;;;;;;;8.55;6.97;;;27.30;57.50;;;;;;6273867;28;20898;-79
2021/09/26 11:11:38;;;;;;;11.75;7.50;;;27.40;57.00;;;;;;6274589;28;20552;-79
2021/09/26 11:15:01;;;;;;;18.13;10.40;;;27.50;56.30;;;;;;6273022;28;20424;-79
2021/09/26 11:18:03;;;;;;;16.00;9.52;;;27.40;56.40;;;;;;6272995;28;20424;-79
2021/09/26 11:21:05;;;;;;;12.15;9.00;;;27.20;56.60;;;;;;6272570;28;20913;-79
2021/09/26 11:24:09;;;;;;;14.77;12.90;;;27.00;57.60;;;;;;6278067;28;20454;-78
2021/09/26 11:27:17;;;;;;;12.85;10.60;;;26.90;57.90;;;;;;6275377;28;20531;-78
2021/09/26 11:30:26;;;;;;;10.53;8.63;;;26.80;58.10;;;;;;6272236;28;20433;-79
2021/09/26 11:33:55;;;;;;;10.88;8.95;;;26.70;58.60;;;;;;6273098;28;20820;-80
2021/09/26 11:36:56;;;;;;;9.85;8.85;;;26.60;58.90;;;;;;6271762;28;20447;-78
2021/09/26 11:39:58;;;;;;;8.55;7.82;;;26.50;59.40;;;;;;6273048;28;20470;-79
2021/09/26 11:43:14;;;;;;;12.70;9.93;;;26.50;59.60;;;;;;6273015;28;20902;-79
2021/09/26 11:46:25;;;;;;;10.40;9.38;;;26.40;60.60;;;;;;6272783;28;20448;-79
2021/09/26 11:49:27;;;;;;;10.33;8.37;;;26.40;59.70;;;;;;6273687;28;20421;-79
2021/09/26 11:52:29;;;;;;;8.33;7.63;;;26.50;59.20;;;;;;6275083;28;20452;-79
2021/09/26 11:55:32;;;;;;;20.77;8.77;;;26.60;59.50;;;;;;6273076;28;20493;-79
2021/09/26 11:58:35;;;;;;;9.13;7.50;;;26.70;59.50;;;;;;6272286;28;20420;-80
2021/09/26 12:01:38;;;;;;;10.18;8.52;;;26.80;58.80;;;;;;6271976;28;20496;-79
2021/09/26 12:04:41;;;;;;;10.13;8.73;;;26.90;58.30;;;;;;6274167;28;20548;-78
2021/09/26 12:07:43;;;;;;;9.33;8.53;;;26.90;58.90;;;;;;6277419;28;20535;-80
2021/09/26 12:10:46;;;;;;;12.70;8.43;;;27.00;58.40;;;;;;6276923;28;20433;-79
2021/09/26 12:13:50;;;;;;;10.35;8.82;;;27.00;58.30;;;;;;6278218;28;20436;-80
2021/09/26 12:16:52;;;;;;;12.80;9.35;;;26.70;58.60;;;;;;6278076;28;20520;-80
2021/09/26 12:19:57;;;;;;;11.48;8.98;;;26.40;60.00;;;;;;6279265;28;20958;-80
2021/09/26 12:23:00;;;;;;;10.98;9.05;;;25.90;60.50;;;;;;6278169;28;20501;-79
2021/09/26 12:26:05;;;;;;;32.17;14.63;;;25.40;63.60;;;;;;6274545;28;20445;-78
2021/09/26 12:29:12;;;;;;;17.10;14.55;;;24.40;68.60;;;;;;6274358;28;20468;-78
2021/09/26 12:32:14;;;;;;;19.25;15.52;;;23.30;74.30;;;;;;6266672;28;20429;-78
2021/09/26 12:35:28;;;;;;;19.75;16.20;;;22.60;77.90;;;;;;6271940;28;20413;-78
2021/09/26 12:38:33;;;;;;;73.07;65.30;;;22.20;79.60;;;;;;6272983;28;20875;-78
2021/09/26 12:41:38;;;;;;;51.60;47.15;;;22.00;81.60;;;;;;6271825;28;20453;-80
2021/09/26 12:44:41;;;;;;;92.25;83.45;;;21.90;82.40;;;;;;6271879;28;20429;-79
2021/09/26 12:47:43;;;;;;;26.83;24.00;;;22.00;82.10;;;;;;6271772;28;20865;-78
2021/09/26 12:50:49;;;;;;;26.27;23.77;;;21.90;82.40;;;;;;6271999;28;20514;-79
2021/09/26 12:53:52;;;;;;;24.70;22.30;;;21.70;81.90;;;;;;6286642;23;20538;-78
2021/09/26 12:56:58;;;;;;;27.73;25.10;;;21.60;84.30;;;;;;6277384;28;20466;-79
2021/09/26 13:00:18;;;;;;;23.83;19.73;;;21.50;85.00;;;;;;6280591;28;20437;-77
2021/09/26 13:03:24;;;;;;;22.37;20.03;;;21.30;84.10;;;;;;6238347;28;20452;-79
2021/09/26 13:06:34;;;;;;;24.42;19.77;;;21.20;85.40;;;;;;6244615;28;20951;-79
2021/09/26 13:09:39;;;;;;;24.58;19.50;;;21.10;85.00;;;;;;6246849;28;20415;-79
2021/09/26 13:12:45;;;;;;;24.47;20.87;;;20.90;85.00;;;;;;6246257;28;20431;-79
2021/09/26 13:15:48;;;;;;;31.75;25.15;;;20.70;85.60;;;;;;6245319;28;20800;-78
2021/09/26 13:18:50;;;;;;;25.83;23.05;;;20.70;87.00;;;;;;6245708;28;20442;-78
2021/09/26 13:22:03;;;;;;;29.80;23.48;;;20.80;87.50;;;;;;6259346;28;20439;-78
2021/09/26 13:25:22;;;;;;;27.38;22.58;;;20.90;87.10;;;;;;6271923;28;20527;-78
2021/09/26 13:28:27;;;;;;;27.60;23.10;;;20.80;86.60;;;;;;6270772;28;20520;-78
2021/09/26 13:31:31;;;;;;;27.92;21.88;;;20.80;87.10;;;;;;6262165;28;20470;-78
2021/09/26 13:34:35;;;;;;;22.02;19.45;;;20.90;87.30;;;;;;6270714;28;20436;-78
2021/09/26 13:37:38;;;;;;;19.08;17.15;;;20.90;86.50;;;;;;6270563;28;20946;-78
2021/09/26 13:40:43;;;;;;;19.60;17.58;;;20.90;86.70;;;;;;6270227;28;20483;-78
2021/09/26 13:43:59;;;;;;;23.08;20.50;;;20.90;86.00;;;;;;6270839;28;20528;-78
2021/09/26 13:47:01;;;;;;;22.03;19.83;;;21.00;87.00;;;;;;6269441;28;20571;-78
2021/09/26 13:50:05;;;;;;;25.73;20.33;;;21.00;86.40;;;;;;6269243;28;20421;-78
2021/09/26 13:53:15;;;;;;;24.67;22.08;;;21.10;87.10;;;;;;6269822;28;20410;-78
2021/09/26 13:56:17;;;;;;;20.10;18.17;;;21.10;87.10;;;;;;6269160;28;20931;-78
2021/09/26 13:59:20;;;;;;;19.27;17.17;;;21.20;86.30;;;;;;6266703;28;20546;-78
2021/09/26 14:02:22;;;;;;;20.30;18.13;;;21.30;86.40;;;;;;6262117;28;20892;-78
2021/09/26 14:05:24;;;;;;;17.27;15.53;;;21.40;86.20;;;;;;6261549;28;20494;-79
2021/09/26 14:08:26;;;;;;;18.55;16.35;;;21.50;85.10;;;;;;6245396;28;20434;-79
2021/09/26 14:11:28;;;;;;;19.65;17.65;;;21.40;84.90;;;;;;6245116;28;20415;-79
2021/09/26 14:14:32;;;;;;;19.38;17.27;;;21.40;85.30;;;;;;6244812;28;20508;-79
2021/09/26 14:17:34;;;;;;;21.02;18.92;;;21.30;85.50;;;;;;6245133;28;20498;-79
2021/09/26 14:20:37;;;;;;;20.05;18.05;;;21.40;85.90;;;;;;6245387;28;20437;-78
2021/09/26 14:23:40;;;;;;;19.88;17.67;;;21.40;85.80;;;;;;6244979;28;20622;-78
2021/09/26 14:26:42;;;;;;;15.52;14.07;;;21.40;86.10;;;;;;6245051;28;20422;-78
2021/09/26 14:29:45;;;;;;;23.02;19.83;;;21.50;83.50;;;;;;6256932;28;20528;-78
2021/09/26 14:32:47;;;;;;;18.13;16.42;;;21.50;85.60;;;;;;6246796;28;20856;-78
2021/09/26 14:35:49;;;;;;;16.70;14.97;;;21.60;84.30;;;;;;6244408;28;20552;-78
2021/09/26 14:38:51;;;;;;;17.35;15.57;;;21.50;84.00;;;;;;6243187;28;20554;-78
2021/09/26 14:41:53;;;;;;;20.63;18.45;;;21.60;84.30;;;;;;6243766;28;20513;-78
2021/09/26 14:44:56;;;;;;;16.10;14.60;;;21.60;85.10;;;;;;6243586;28;20474;-78
2021/09/26 14:47:58;;;;;;;16.75;15.05;;;21.60;83.80;;;;;;6244084;28;20900;-78
2021/09/26 14:51:00;;;;;;;17.90;16.20;;;21.70;83.60;;;;;;6243208;28;20415;-78
2021/09/26 14:54:02;;;;;;;20.80;18.60;;;21.60;83.60;;;;;;6247059;28;20971;-78
2021/09/26 14:57:04;;;;;;;17.85;15.52;;;21.60;84.40;;;;;;6247480;28;20553;-78
2021/09/26 15:00:10;;;;;;;21.47;18.00;;;21.60;83.60;;;;;;6256891;28;20510;-78
2021/09/26 15:03:12;;;;;;;17.50;15.40;;;21.50;84.80;;;;;;6223063;28;20948;-77
2021/09/26 15:06:14;;;;;;;16.77;15.07;;;21.60;84.60;;;;;;6225821;28;20510;-77
2021/09/26 15:09:16;;;;;;;16.60;14.90;;;21.60;83.10;;;;;;6246522;28;20565;-77
2021/09/26 15:12:18;;;;;;;16.50;14.53;;;21.60;83.50;;;;;;6248152;28;20438;-77
2021/09/26 15:15:22;;;;;;;16.77;15.10;;;21.50;82.50;;;;;;6247761;28;20888;-77
2021/09/26 15:18:24;;;;;;;16.65;13.73;;;21.50;83.50;;;;;;6247413;28;20512;-78
2021/09/26 15:21:28;;;;;;;15.60;14.10;;;21.50;83.30;;;;;;6247928;28;20851;-78
2021/09/26 15:24:30;;;;;;;17.42;15.57;;;21.40;83.50;;;;;;6248452;28;20435;-78
2021/09/26 15:27:31;;;;;;;17.10;15.35;;;21.30;84.10;;;;;;6247341;28;20494;-77
2021/09/26 15:30:36;;;;;;;16.17;14.57;;;21.30;84.10;;;;;;6258187;28;20451;-76
2021/09/26 15:33:43;;;;;;;16.92;15.23;;;21.30;83.90;;;;;;6288891;23;20916;-77
2021/09/26 15:36:56;;;;;;;17.92;15.40;;;21.30;83.90;;;;;;6295480;28;20919;-77
2021/09/26 15:39:58;;;;;;;18.17;15.80;;;21.30;83.70;;;;;;6296819;28;20436;-77
2021/09/26 15:43:00;;;;;;;16.77;15.07;;;21.30;84.40;;;;;;6291390;28;20908;-78
2021/09/26 15:46:05;;;;;;;16.73;14.75;;;21.30;83.50;;;;;;6271929;28;20938;-77